createdAt,value
2022-08-05T04:00:32.209Z,2.10
2022-08-05T04:05:33.857Z,7.70
2022-08-05T04:10:37.549Z,7.40
2022-08-05T04:16:43.596Z,7.40
2022-08-05T04:22:09.783Z,7.70
2022-08-05T04:26:44.499Z,7.50
2022-08-05T04:31:43.440Z,7.60
2022-08-05T04:36:46.054Z,7.30
2022-08-05T04:41:44.415Z,7.50
2022-08-05T04:46:43.276Z,7.40
2022-08-05T04:51:43.290Z,7.70
2022-08-05T04:56:43.531Z,9.10
2022-08-05T05:02:06.744Z,8.00
2022-08-05T05:06:44.913Z,9.30
2022-08-05T05:11:55.719Z,11.80
2022-08-05T05:16:43.959Z,11.90
2022-08-05T05:21:42.888Z,11.10
2022-08-05T05:26:42.840Z,12.10
2022-08-05T05:31:42.779Z,12.60
2022-08-05T05:36:42.721Z,12.50
2022-08-05T05:41:42.678Z,12.80
2022-08-05T05:46:42.600Z,13.00
2022-08-05T05:51:49.586Z,13.20
2022-08-05T05:56:43.559Z,13.60
2022-08-05T06:01:57.374Z,14.70
2022-08-05T06:06:47.377Z,15.30
2022-08-05T06:11:48.828Z,15.00
2022-08-05T06:16:43.286Z,15.20
2022-08-05T06:21:49.746Z,15.50
2022-08-05T06:26:51.309Z,15.40
2022-08-05T06:31:43.114Z,14.70
2022-08-05T06:36:57.107Z,14.90
2022-08-05T06:41:43.007Z,15.70
2022-08-05T06:46:41.954Z,16.80
2022-08-05T06:51:41.894Z,18.00
2022-08-05T06:56:41.845Z,19.20
2022-08-05T07:01:42.825Z,18.60
2022-08-05T07:06:41.737Z,19.60
2022-08-05T07:11:42.523Z,19.90
2022-08-05T07:17:57.311Z,19.80
2022-08-05T07:22:00.642Z,20.00
2022-08-05T07:26:42.510Z,19.40
2022-08-05T07:31:54.787Z,18.20
2022-08-05T07:36:42.398Z,17.40
2022-08-05T07:42:13.615Z,18.50
2022-08-05T07:46:48.210Z,19.00
2022-08-05T07:51:53.452Z,20.60
2022-08-05T07:57:02.613Z,23.70
2022-08-05T08:01:52.263Z,23.90
2022-08-05T08:06:42.075Z,26.00
2022-08-05T08:11:47.774Z,25.20
2022-08-05T08:16:50.778Z,23.50
2022-08-05T08:21:41.902Z,21.40
2022-08-05T08:26:41.368Z,18.30
2022-08-05T08:31:41.389Z,18.20
2022-08-05T08:36:49.103Z,17.60
2022-08-05T08:41:52.593Z,17.70
2022-08-05T08:46:41.641Z,15.50
2022-08-05T08:52:04.359Z,12.60
2022-08-05T08:56:47.444Z,12.40
2022-08-05T09:01:42.698Z,12.60
2022-08-05T09:06:40.404Z,11.30
2022-08-05T09:11:53.649Z,10.70
2022-08-05T09:16:41.293Z,8.70
2022-08-05T09:22:21.888Z,9.00
2022-08-05T09:26:41.181Z,10.10
2022-08-05T09:32:42.167Z,10.10
2022-08-05T09:36:54.742Z,10.30
2022-08-05T09:41:41.019Z,10.00
2022-08-05T09:46:39.969Z,8.80
2022-08-05T09:51:41.001Z,7.70
2022-08-05T09:56:39.856Z,7.80
2022-08-05T10:01:40.799Z,6.60
2022-08-05T10:06:39.747Z,5.50
2022-08-05T10:11:39.686Z,5.40
2022-08-05T10:16:52.243Z,5.30
2022-08-05T10:21:41.201Z,4.80
2022-08-05T10:26:52.047Z,4.00
2022-08-05T10:32:52.970Z,4.20
2022-08-05T10:36:40.413Z,4.30
2022-08-05T10:41:45.172Z,4.30
2022-08-05T10:46:40.307Z,4.00
2022-08-05T10:51:48.522Z,3.90
2022-08-05T10:56:40.191Z,4.20
2022-08-05T11:01:54.026Z,4.30
2022-08-05T11:06:40.084Z,4.30
2022-08-05T11:11:44.403Z,3.50
2022-08-05T11:16:47.675Z,4.40
2022-08-05T11:21:48.717Z,4.20
2022-08-05T11:26:40.429Z,5.10
2022-08-05T11:31:58.825Z,3.50
2022-08-05T11:36:40.494Z,2.70
2022-08-05T11:42:01.477Z,2.70
2022-08-05T11:47:09.634Z,2.80
2022-08-05T11:51:49.186Z,2.90
2022-08-05T11:56:41.019Z,3.10
2022-08-05T12:01:38.490Z,3.50
2022-08-05T12:06:38.443Z,2.70
2022-08-05T12:11:40.259Z,2.70
2022-08-05T12:16:38.755Z,2.40
2022-08-05T12:21:39.096Z,3.00
2022-08-05T12:26:38.231Z,2.60
2022-08-05T12:31:45.962Z,2.80
2022-08-05T12:36:39.216Z,2.80
2022-08-05T12:41:43.604Z,2.90
2022-08-05T12:46:39.014Z,3.00
2022-08-05T12:52:13.716Z,3.10
2022-08-05T12:56:38.906Z,3.20
2022-08-05T13:02:01.385Z,2.90
2022-08-05T13:06:38.793Z,2.80
2022-08-05T13:12:02.667Z,2.90
2022-08-05T13:16:38.690Z,3.00
2022-08-05T13:21:48.260Z,3.00
2022-08-05T13:26:38.575Z,3.20
2022-08-05T13:32:03.924Z,2.80
2022-08-05T13:36:38.460Z,3.10
2022-08-05T13:41:37.825Z,2.80
2022-08-05T13:46:37.975Z,2.50
2022-08-05T13:51:41.108Z,2.60
2022-08-05T13:56:37.251Z,2.60
2022-08-05T14:01:46.469Z,2.70
2022-08-05T14:06:38.138Z,2.70
2022-08-05T14:12:00.623Z,2.40
2022-08-05T14:16:38.034Z,2.50
2022-08-05T14:22:10.278Z,2.50
2022-08-05T14:26:51.433Z,2.50
2022-08-05T14:32:03.945Z,2.80
2022-08-05T14:36:37.811Z,2.50
2022-08-05T14:41:36.758Z,2.50
2022-08-05T14:46:37.704Z,2.50
2022-08-05T14:51:36.649Z,2.20
2022-08-05T14:56:38.053Z,2.20
2022-08-05T15:01:48.751Z,1.90
2022-08-05T15:06:37.502Z,1.80
2022-08-05T15:11:51.208Z,1.70
2022-08-05T15:16:37.392Z,1.40
2022-08-05T15:21:36.349Z,1.60
2022-08-05T15:26:36.281Z,1.50
2022-08-05T15:31:36.285Z,1.60
2022-08-05T15:36:36.220Z,1.40
2022-08-05T15:41:55.570Z,1.60
2022-08-05T15:46:37.066Z,1.30
2022-08-05T15:52:04.287Z,1.40
2022-08-05T15:56:36.970Z,1.10
2022-08-05T16:01:39.711Z,1.00
2022-08-05T16:06:36.900Z,1.00
2022-08-05T16:11:42.763Z,1.10
2022-08-05T16:17:58.086Z,0.90
2022-08-05T16:22:48.588Z,0.70
2022-08-05T16:28:04.852Z,0.70
2022-08-05T16:32:48.334Z,0.60
2022-08-05T16:38:02.700Z,0.80
2022-08-05T16:42:48.253Z,0.80
2022-08-05T16:47:54.896Z,0.90
2022-08-05T16:52:48.106Z,0.70
2022-08-05T16:58:00.298Z,0.80
2022-08-05T17:02:47.998Z,0.70
2022-08-05T17:07:52.990Z,0.40
2022-08-05T17:12:51.485Z,0.80
2022-08-05T17:17:54.745Z,0.40
2022-08-05T17:22:47.778Z,0.60
2022-08-05T17:27:47.756Z,0.50
2022-08-05T17:32:46.688Z,0.50
2022-08-05T17:37:48.282Z,0.80
2022-08-05T17:42:51.917Z,0.50
2022-08-05T17:47:52.956Z,0.70
2022-08-05T17:52:53.005Z,0.60
2022-08-05T17:57:48.751Z,0.50
2022-08-05T18:02:46.358Z,0.50
2022-08-05T18:07:46.296Z,0.60
2022-08-05T18:12:46.238Z,0.60
2022-08-05T18:18:00.482Z,0.50
2022-08-05T18:22:54.606Z,0.90
2022-08-05T18:27:52.318Z,0.50
2022-08-05T18:32:53.056Z,0.50
2022-08-05T18:37:46.964Z,0.50
2022-08-05T18:42:45.974Z,0.60
2022-08-05T18:47:50.130Z,0.50
2022-08-05T18:52:51.127Z,0.50
2022-08-05T18:57:52.896Z,0.50
2022-08-05T19:02:46.887Z,0.80
2022-08-05T19:07:46.577Z,0.60
2022-08-05T19:12:46.207Z,0.60
2022-08-05T19:18:08.185Z,0.60
2022-08-05T19:22:46.470Z,0.60
2022-08-05T19:27:45.439Z,0.50
2022-08-05T19:32:45.355Z,0.60
2022-08-05T19:38:04.284Z,1.00
2022-08-05T19:43:00.657Z,0.70
2022-08-05T19:47:46.208Z,0.70
2022-08-05T19:52:47.716Z,0.80
2022-08-05T19:57:47.414Z,0.80
2022-08-05T20:02:46.023Z,0.70
2022-08-05T20:07:48.120Z,0.70
2022-08-05T20:12:48.298Z,0.80
2022-08-05T20:17:44.859Z,0.90
2022-08-05T20:22:44.836Z,0.90
2022-08-05T20:27:44.759Z,0.60
2022-08-05T20:32:45.157Z,0.80
2022-08-05T20:38:06.256Z,0.60
2022-08-05T20:42:45.587Z,0.70
2022-08-05T20:47:44.530Z,0.80
2022-08-05T20:52:44.501Z,0.60
2022-08-05T20:57:45.116Z,0.80
2022-08-05T21:02:51.599Z,0.70
2022-08-05T21:07:45.882Z,0.70
2022-08-05T21:12:57.663Z,1.10
2022-08-05T21:17:45.209Z,0.80
2022-08-05T21:22:44.157Z,0.80
2022-08-05T21:27:47.512Z,0.90
2022-08-05T21:32:44.046Z,0.90
2022-08-05T21:37:52.658Z,1.10
2022-08-05T21:42:45.751Z,1.00
2022-08-05T21:47:56.897Z,1.10
2022-08-05T21:52:47.546Z,0.90
2022-08-05T21:57:43.776Z,1.20
2022-08-05T22:02:43.733Z,1.10
2022-08-05T22:07:59.017Z,1.80
2022-08-05T22:12:44.905Z,1.10
2022-08-05T22:18:58.779Z,1.20
2022-08-05T22:24:02.476Z,1.00
2022-08-05T22:28:56.017Z,1.00
2022-08-05T22:33:57.169Z,0.90
2022-08-05T22:38:56.000Z,1.10
2022-08-05T22:43:54.841Z,1.20
2022-08-05T22:48:54.820Z,1.00
2022-08-05T22:53:55.071Z,1.00
2022-08-05T22:58:54.682Z,1.10
2022-08-05T23:03:58.776Z,1.00
2022-08-05T23:08:54.571Z,1.10
2022-08-05T23:13:54.523Z,1.10
2022-08-05T23:18:54.485Z,1.10
2022-08-05T23:23:54.416Z,1.10
2022-08-05T23:28:54.360Z,1.10
